EW6249 Weather Reports


Display with metric or nautical units.
time (UTC)temp
F
wind
direction
speed
MPH
gust
MPH
rain 1hr
in
rain 24hr
in
rain mn
in
humidity
%
barometer
mb
20191210151857 42 339 6.0 11.0 0.00 0.00 0.16 92 1023.1
20191210150848 42 4 2.0 12.0 0.00 0.00 0.16 92 1022.9
20191210145839 42 13 2.0 8.0 0.00 0.00 0.16 92 1022.7
20191210144744 42 344 2.0 12.0 0.00 0.00 0.16 91 1022.3
20191210143738 42 22 5.0 12.0 0.00 0.00 0.15 91 1021.8
20191210142734 42 349 4.0 12.0 0.00 0.00 0.14 91 1021.7
20191210141733 42 345 4.0 12.0 0.00 0.00 0.14 91 1021.8
20191210140732 42 349 3.0 12.0 0.00 0.00 0.14 91 1021.1
20191210135731 42 10 5.0 10.0 0.00 0.00 0.13 90 1021.4
20191210134730 43 50 2.0 12.0 0.00 0.00 0.11 90 1020.8
20191210133729 43 47 11.0 11.0 0.00 0.00 0.03 89 1021.1
20191210132728 43 58 5.0 14.0 0.00 0.00 0.03 89 1019.9
20191210131727 43 342 5.0 12.0 0.00 0.00 0.02 88 1019.7
20191210130726 44 14 1.0 13.0 0.00 0.00 0.01 87 1019.5
20191210125725 44 250 1.0 16.0 0.00 0.00 0.01 86 1019.6
20191210124724 44 338 2.0 10.0 0.00 0.00 0.01 85 1019.8
20191210123723 44 13 7.0 11.0 0.00 0.00 0.01 84 1019.4
20191210122722 45 5 5.0 15.0 0.00 0.00 0.01 80 1019.5
20191210121722 46 31 5.0 13.0 0.00 0.00 0.00 77 1019.4
20191210120720 46 319 7.0 13.0 0.00 0.00 0.00 76 1019.5
20191210115719 47 20 3.0 12.0 0.00 0.00 0.00 75 1019.5
20191210114718 47 18 5.0 16.0 0.00 0.00 0.00 75 1018.6
20191210113717 47 39 6.0 14.0 0.00 0.00 0.00 76 1018.5
20191210112717 47 334 6.0 17.0 0.00 0.00 0.00 76 1018.3
20191210111715 48 352 3.0 12.0 0.00 0.00 0.00 76 1018.2
20191210110714 48 31 7.0 12.0 0.00 0.00 0.00 75 1018.3
20191210105714 48 345 9.0 17.0 0.00 0.00 0.00 74 1018.1
20191210104710 49 342 6.0 15.0 0.00 0.00 0.00 73 1018.0
20191210103709 50 44 9.0 15.0 0.00 0.00 0.00 69 1018.3
20191210102709 50 18 2.0 11.0 0.00 0.00 0.00 69 1018.1
20191210101708 50 20 4.0 15.0 0.00 0.00 0.00 68 1017.9
20191210100706 50 13 7.0 13.0 0.00 0.00 0.00 68 1018.0
20191210095706 51 358 3.0 16.0 0.00 0.00 0.00 66 1017.6
20191210094705 52 11 1.0 11.0 0.00 0.00 0.00 65 1017.4
20191210093704 52 41 3.0 14.0 0.00 0.00 0.00 61 1017.3
20191210092703 53 356 6.0 10.0 0.00 0.00 0.00 61 1017.4
20191210091701 53 53 2.0 14.0 0.00 0.00 0.00 60 1016.9
20191210090701 53 352 8.0 14.0 0.00 0.00 0.00 60 1016.6
20191210085700 53 3 8.0 15.0 0.00 0.00 0.00 59 1016.3
20191210084659 53 37 7.0 13.0 0.00 0.00 0.00 60 1016.0
20191210083658 54 30 4.0 14.0 0.00 0.00 0.00 60 1015.9
20191210082657 54 33 9.0 14.0 0.00 0.00 0.00 60 1015.7
20191210081655 54 6 4.0 14.0 0.00 0.00 0.00 60 1015.5
20191210080654 54 34 4.0 15.0 0.00 0.00 0.00 60 1015.3
20191210075654 55 12 11.0 12.0 0.00 0.00 0.00 60 1015.4
20191210074652 55 2 5.0 13.0 0.00 0.00 0.00 59 1015.2
20191210073652 55 30 6.0 18.0 0.00 0.00 0.00 59 1015.1
20191210072651 55 7 7.0 16.0 0.00 0.00 0.00 58 1015.3
20191210071645 56 13 8.0 18.0 0.00 0.00 0.00 58 1015.1
20191210070640 56 3 7.0 13.0 0.00 0.00 0.00 58 1015.1
20191210065624 57 360 3.0 14.0 0.00 0.00 0.00 58 1015.1
20191210064618 57 349 2.0 11.0 0.00 0.00 0.00 58 1015.0
20191210063608 58 24 2.0 12.0 0.00 0.00 0.00 58 1015.0
20191210062543 58 59 7.0 12.0 0.00 0.00 0.00 57 1015.0
20191210061528 58 30 9.0 15.0 0.00 0.00 0.00 56 1015.1
20191210060439 59 13 7.0 13.0 0.00 0.00 0.00 55 1015.1
20191210055335 59 342 5.0 14.0 0.00 0.00 0.00 55 1015.1
20191210054334 60 50 8.0 14.0 0.00 0.00 0.00 54 1014.8
20191210053223 61 346 6.0 13.0 0.00 0.00 0.00 54 1014.6
20191210052222 61 13 4.0 11.0 0.00 0.00 0.00 54 1014.7
20191210051214 62 343 3.0 14.0 0.00 0.00 0.00 53 1014.6
20191210050208 62 11 5.0 13.0 0.00 0.00 0.00 53 1014.8
20191210045205 62 350 6.0 12.0 0.00 0.00 0.00 52 1014.5
20191210044201 63 6 4.0 16.0 0.00 0.00 0.00 51 1014.2
20191210043156 64 352 5.0 16.0 0.00 0.00 0.00 50 1013.9
20191210022246 65 299 0.0 1.0 0.00 0.00 0.00 89 1011.4
20191210021245 65 233 0.0 1.0 0.00 0.00 0.00 88 1011.3
20191210020243 65 234 0.0 1.0 0.00 0.00 0.00 88 1011.2
20191210015233 66 234 0.0 1.0 0.00 0.00 0.00 87 1011.2
20191210014232 66 224 0.0 1.0 0.00 0.00 0.00 87 1011.1
20191210013232 66 153 0.0 0.0 0.00 0.00 0.00 86 1011.1
20191210012226 67 153 0.0 0.0 0.00 0.00 0.00 85 1010.8
20191210011224 67 153 0.0 0.0 0.00 0.00 0.00 85 1010.7
20191210010223 68 153 0.0 0.0 0.00 0.00 0.00 84 1010.7
20191210005211 68 148 0.0 0.0 0.00 0.00 0.00 83 1010.4
20191210004207 69 148 0.0 0.0 0.00 0.00 0.00 82 1010.1
20191210003201 70 150 1.0 2.0 0.00 0.00 0.00 82 1010.0
20191210002130 70 147 1.0 5.0 0.00 0.00 0.00 81 1009.9
20191210001128 70 113 1.0 3.0 0.00 0.00 0.00 81 1009.9
20191210000127 70 150 2.0 2.0 0.00 0.00 0.00 81 1009.8
20191209235126 70 144 0.0 0.0 0.00 0.00 0.00 79 1009.7
20191209234125 72 145 0.0 0.0 0.00 0.00 0.00 78 1009.5
20191209233125 72 145 0.0 0.0 0.00 0.00 0.00 77 1009.4
20191209232123 73 145 0.0 0.0 0.00 0.00 0.00 75 1009.3
20191209231120 74 145 0.0 1.0 0.00 0.00 0.00 74 1009.1
20191209230118 75 144 0.0 0.0 0.00 0.00 0.00 73 1009.1
20191209225116 75 144 0.0 1.0 0.00 0.00 0.00 71 1009.0
20191209224115 76 30 0.0 0.0 0.00 0.00 0.00 71 1009.0
20191209223112 77 30 0.0 0.0 0.00 0.00 0.00 70 1008.8
20191209222111 77 30 0.0 2.0 0.00 0.00 0.00 69 1008.8
20191209221110 78 4 0.0 1.0 0.00 0.00 0.00 68 1008.8
20191209220108 78 12 0.0 1.0 0.00 0.00 0.00 67 1008.7
20191209215108 78 9 0.0 2.0 0.00 0.00 0.00 66 1008.7
20191209214105 78 139 1.0 1.0 0.00 0.00 0.00 65 1008.6
20191209213104 78 146 0.0 2.0 0.00 0.00 0.00 66 1008.7
20191209212104 78 138 0.0 5.0 0.00 0.00 0.00 68 1008.6
20191209211042 78 15 1.0 2.0 0.00 0.00 0.00 66 1008.6
20191209210037 79 135 1.0 2.0 0.00 0.00 0.00 64 1008.8
20191209205033 79 153 0.0 2.0 0.00 0.00 0.00 66 1008.8
20191209204013 80 245 0.0 2.0 0.00 0.00 0.00 67 1008.8
20191209203008 79 203 0.0 3.0 0.00 0.00 0.00 68 1008.9
20191209202002 79 221 0.0 2.0 0.00 0.00 0.00 68 1008.9
20191209200959 78 257 0.0 4.0 0.00 0.00 0.00 71 1009.0
20191209193807 76 134 2.0 5.0 0.00 0.00 0.00 74 1009.4
20191209192759 75 231 2.0 4.0 0.00 0.00 0.00 76 1009.5
20191209191752 74 158 1.0 4.0 0.00 0.00 0.00 78 1009.8
20191209190653 74 184 2.0 6.0 0.00 0.00 0.00 79 1010.1
20191209185652 72 134 2.0 5.0 0.00 0.00 0.00 81 1010.4
20191209184643 72 142 2.0 4.0 0.00 0.00 0.00 82 1010.6
20191209183641 72 136 1.0 4.0 0.00 0.00 0.00 83 1010.9
20191209182639 71 157 2.0 4.0 0.00 0.00 0.00 83 1011.1
20191209181628 71 135 1.0 5.0 0.00 0.00 0.00 84 1011.3
20191209180252 70 129 2.0 5.0 0.00 0.00 0.00 86 1011.4
20191209175240 70 119 2.0 5.0 0.00 0.00 0.00 87 1011.6
20191209174236 69 202 3.0 6.0 0.00 0.00 0.00 88 1011.8
20191209173026 68 182 2.0 5.0 0.00 0.00 0.00 89 1011.8
20191209172018 68 124 1.0 5.0 0.00 0.00 0.00 92 1011.9
20191209171003 67 135 2.0 2.0 0.00 0.00 0.00 93 1012.2
20191209165923 67 200 0.0 2.0 0.00 0.00 0.00 93 1012.4
20191209164922 66 229 2.0 3.0 0.00 0.00 0.00 93 1012.6
20191209163917 67 176 0.0 2.0 0.00 0.00 0.00 94 1012.6
20191209162914 66 168 0.0 1.0 0.00 0.00 0.00 94 1012.7
20191209161906 66 236 0.0 1.0 0.00 0.00 0.00 94 1012.6
20191209160901 66 240 0.0 1.0 0.00 0.00 0.00 94 1012.6
20191209155857 66 236 1.0 1.0 0.00 0.00 0.00 94 1012.4
20191209154856 66 236 0.0 1.0 0.00 0.00 0.00 94 1012.4
20191209153848 65 230 0.0 1.0 0.00 0.00 0.00 94 1012.5
20191209152840 65 225 0.0 2.0 0.00 0.00 0.00 94 1012.5